sensor_id;sensor_type;location;lat;lon;timestamp;P1;durP1;ratioP1;P2;durP2;ratioP2
45208;SDS011;30951;43.994;26.260;2022-10-23T00:03:38;24.90;;;15.98;;
45208;SDS011;30951;43.994;26.260;2022-10-23T00:06:04;28.80;;;15.80;;
45208;SDS011;30951;43.994;26.260;2022-10-23T00:08:29;28.55;;;15.32;;
45208;SDS011;30951;43.994;26.260;2022-10-23T00:10:55;25.50;;;15.15;;
45208;SDS011;30951;43.994;26.260;2022-10-23T00:13:20;26.92;;;15.77;;
45208;SDS011;30951;43.994;26.260;2022-10-23T00:15:46;28.42;;;15.35;;
45208;SDS011;30951;43.994;26.260;2022-10-23T00:18:11;34.92;;;15.38;;
45208;SDS011;30951;43.994;26.260;2022-10-23T00:20:37;23.25;;;15.60;;
45208;SDS011;30951;43.994;26.260;2022-10-23T00:23:02;28.13;;;16.73;;
45208;SDS011;30951;43.994;26.260;2022-10-23T00:25:28;26.90;;;16.75;;
45208;SDS011;30951;43.994;26.260;2022-10-23T00:27:53;27.83;;;14.75;;
45208;SDS011;30951;43.994;26.260;2022-10-23T00:30:19;22.52;;;15.13;;
45208;SDS011;30951;43.994;26.260;2022-10-23T00:32:44;24.33;;;15.60;;
45208;SDS011;30951;43.994;26.260;2022-10-23T00:35:10;32.30;;;15.82;;
45208;SDS011;30951;43.994;26.260;2022-10-23T00:37:35;26.08;;;16.30;;
45208;SDS011;30951;43.994;26.260;2022-10-23T00:40:02;26.20;;;15.60;;
45208;SDS011;30951;43.994;26.260;2022-10-23T00:42:28;25.13;;;15.55;;
45208;SDS011;30951;43.994;26.260;2022-10-23T00:47:19;25.30;;;15.00;;
45208;SDS011;30951;43.994;26.260;2022-10-23T00:49:45;24.48;;;15.52;;
45208;SDS011;30951;43.994;26.260;2022-10-23T00:52:11;27.20;;;15.65;;
45208;SDS011;30951;43.994;26.260;2022-10-23T00:54:38;34.00;;;15.57;;
45208;SDS011;30951;43.994;26.260;2022-10-23T00:57:05;23.92;;;16.10;;
45208;SDS011;30951;43.994;26.260;2022-10-23T00:59:32;26.17;;;16.08;;
45208;SDS011;30951;43.994;26.260;2022-10-23T01:01:58;27.73;;;16.20;;
45208;SDS011;30951;43.994;26.260;2022-10-23T01:04:24;22.92;;;15.77;;
45208;SDS011;30951;43.994;26.260;2022-10-23T01:14:54;23.38;;;16.08;;
45208;SDS011;30951;43.994;26.260;2022-10-23T01:17:32;25.65;;;15.98;;
45208;SDS011;30951;43.994;26.260;2022-10-23T01:20:08;30.25;;;16.05;;
45208;SDS011;30951;43.994;26.260;2022-10-23T01:22:46;26.08;;;15.20;;
45208;SDS011;30951;43.994;26.260;2022-10-23T01:28:38;24.38;;;16.05;;
45208;SDS011;30951;43.994;26.260;2022-10-23T01:31:10;28.95;;;15.63;;
45208;SDS011;30951;43.994;26.260;2022-10-23T01:33:42;23.55;;;14.60;;
45208;SDS011;30951;43.994;26.260;2022-10-23T01:36:11;26.13;;;16.23;;
45208;SDS011;30951;43.994;26.260;2022-10-23T01:41:26;37.42;;;15.88;;
45208;SDS011;30951;43.994;26.260;2022-10-23T01:43:56;28.50;;;16.23;;
45208;SDS011;30951;43.994;26.260;2022-10-23T01:46:26;24.15;;;15.18;;
45208;SDS011;30951;43.994;26.260;2022-10-23T01:48:53;28.13;;;15.38;;
45208;SDS011;30951;43.994;26.260;2022-10-23T01:51:19;24.30;;;15.05;;
45208;SDS011;30951;43.994;26.260;2022-10-23T01:53:47;27.88;;;14.90;;
45208;SDS011;30951;43.994;26.260;2022-10-23T01:56:18;33.60;;;14.98;;
45208;SDS011;30951;43.994;26.260;2022-10-23T01:58:46;23.88;;;15.48;;
45208;SDS011;30951;43.994;26.260;2022-10-23T02:01:13;27.20;;;13.63;;
45208;SDS011;30951;43.994;26.260;2022-10-23T02:03:39;22.10;;;13.85;;
45208;SDS011;30951;43.994;26.260;2022-10-23T02:06:06;30.80;;;14.75;;
45208;SDS011;30951;43.994;26.260;2022-10-23T02:08:32;34.35;;;14.43;;
45208;SDS011;30951;43.994;26.260;2022-10-23T02:10:59;20.60;;;13.13;;
45208;SDS011;30951;43.994;26.260;2022-10-23T02:24:55;19.40;;;13.00;;
45208;SDS011;30951;43.994;26.260;2022-10-23T02:27:31;18.33;;;12.32;;
45208;SDS011;30951;43.994;26.260;2022-10-23T02:30:04;18.83;;;11.93;;
45208;SDS011;30951;43.994;26.260;2022-10-23T02:32:31;26.45;;;12.90;;
45208;SDS011;30951;43.994;26.260;2022-10-23T02:34:57;24.25;;;13.50;;
45208;SDS011;30951;43.994;26.260;2022-10-23T02:37:23;27.35;;;11.95;;
45208;SDS011;30951;43.994;26.260;2022-10-23T02:39:49;23.42;;;13.18;;
45208;SDS011;30951;43.994;26.260;2022-10-23T02:42:21;23.20;;;12.60;;
45208;SDS011;30951;43.994;26.260;2022-10-23T02:45:02;20.58;;;13.98;;
45208;SDS011;30951;43.994;26.260;2022-10-23T03:00:30;23.40;;;13.38;;
45208;SDS011;30951;43.994;26.260;2022-10-23T03:02:56;22.75;;;13.90;;
45208;SDS011;30951;43.994;26.260;2022-10-23T03:05:25;23.00;;;13.73;;
45208;SDS011;30951;43.994;26.260;2022-10-23T03:07:53;23.52;;;14.02;;
45208;SDS011;30951;43.994;26.260;2022-10-23T03:10:19;19.45;;;12.52;;
45208;SDS011;30951;43.994;26.260;2022-10-23T03:12:45;30.67;;;14.25;;
45208;SDS011;30951;43.994;26.260;2022-10-23T03:15:11;22.38;;;13.90;;
45208;SDS011;30951;43.994;26.260;2022-10-23T03:17:37;22.70;;;13.05;;
45208;SDS011;30951;43.994;26.260;2022-10-23T03:20:03;26.00;;;14.38;;
45208;SDS011;30951;43.994;26.260;2022-10-23T03:22:30;21.05;;;11.55;;
45208;SDS011;30951;43.994;26.260;2022-10-23T03:24:55;26.95;;;12.98;;
45208;SDS011;30951;43.994;26.260;2022-10-23T03:27:21;22.33;;;13.35;;
45208;SDS011;30951;43.994;26.260;2022-10-23T03:29:46;21.98;;;13.15;;
45208;SDS011;30951;43.994;26.260;2022-10-23T03:32:12;22.92;;;12.18;;
45208;SDS011;30951;43.994;26.260;2022-10-23T03:34:37;18.10;;;12.05;;
45208;SDS011;30951;43.994;26.260;2022-10-23T03:37:03;24.73;;;11.02;;
45208;SDS011;30951;43.994;26.260;2022-10-23T03:39:29;30.48;;;11.43;;
45208;SDS011;30951;43.994;26.260;2022-10-23T03:41:54;18.95;;;10.68;;
45208;SDS011;30951;43.994;26.260;2022-10-23T03:44:20;31.80;;;12.82;;
45208;SDS011;30951;43.994;26.260;2022-10-23T03:46:45;24.30;;;11.30;;
45208;SDS011;30951;43.994;26.260;2022-10-23T03:49:11;24.35;;;11.57;;
45208;SDS011;30951;43.994;26.260;2022-10-23T03:51:36;25.73;;;11.27;;
45208;SDS011;30951;43.994;26.260;2022-10-23T03:54:05;17.50;;;11.60;;
45208;SDS011;30951;43.994;26.260;2022-10-23T03:56:32;25.83;;;11.55;;
45208;SDS011;30951;43.994;26.260;2022-10-23T03:58:57;23.33;;;12.43;;
45208;SDS011;30951;43.994;26.260;2022-10-23T04:01:23;25.13;;;11.75;;
45208;SDS011;30951;43.994;26.260;2022-10-23T04:03:48;18.48;;;12.05;;
45208;SDS011;30951;43.994;26.260;2022-10-23T04:06:14;21.45;;;10.45;;
45208;SDS011;30951;43.994;26.260;2022-10-23T04:08:41;28.05;;;11.77;;
45208;SDS011;30951;43.994;26.260;2022-10-23T04:11:07;19.88;;;10.95;;
45208;SDS011;30951;43.994;26.260;2022-10-23T04:13:33;16.65;;;10.98;;
45208;SDS011;30951;43.994;26.260;2022-10-23T04:15:58;19.70;;;10.45;;
45208;SDS011;30951;43.994;26.260;2022-10-23T04:18:24;19.58;;;10.13;;
45208;SDS011;30951;43.994;26.260;2022-10-23T04:20:49;17.10;;;11.25;;
45208;SDS011;30951;43.994;26.260;2022-10-23T04:23:15;32.58;;;11.43;;
45208;SDS011;30951;43.994;26.260;2022-10-23T04:25:41;26.35;;;11.48;;
45208;SDS011;30951;43.994;26.260;2022-10-23T04:28:07;26.05;;;11.60;;
45208;SDS011;30951;43.994;26.260;2022-10-23T04:30:32;23.25;;;11.48;;
45208;SDS011;30951;43.994;26.260;2022-10-23T04:32:58;27.15;;;11.63;;
45208;SDS011;30951;43.994;26.260;2022-10-23T04:35:24;25.55;;;12.00;;
45208;SDS011;30951;43.994;26.260;2022-10-23T04:37:49;19.48;;;10.73;;
45208;SDS011;30951;43.994;26.260;2022-10-23T04:40:15;22.63;;;11.57;;
45208;SDS011;30951;43.994;26.260;2022-10-23T04:42:40;22.33;;;10.73;;
45208;SDS011;30951;43.994;26.260;2022-10-23T04:45:06;29.73;;;13.98;;
45208;SDS011;30951;43.994;26.260;2022-10-23T04:47:31;30.98;;;13.07;;
45208;SDS011;30951;43.994;26.260;2022-10-23T04:49:57;33.17;;;13.15;;
45208;SDS011;30951;43.994;26.260;2022-10-23T04:52:22;21.48;;;11.63;;
45208;SDS011;30951;43.994;26.260;2022-10-23T04:54:48;20.23;;;11.57;;
45208;SDS011;30951;43.994;26.260;2022-10-23T04:57:13;20.90;;;11.02;;
45208;SDS011;30951;43.994;26.260;2022-10-23T04:59:39;31.88;;;11.00;;
45208;SDS011;30951;43.994;26.260;2022-10-23T05:02:04;19.38;;;11.05;;
45208;SDS011;30951;43.994;26.260;2022-10-23T05:04:30;21.08;;;9.60;;
45208;SDS011;30951;43.994;26.260;2022-10-23T05:06:55;26.52;;;10.85;;
45208;SDS011;30951;43.994;26.260;2022-10-23T05:09:21;21.65;;;11.50;;
45208;SDS011;30951;43.994;26.260;2022-10-23T05:11:46;17.45;;;10.80;;
45208;SDS011;30951;43.994;26.260;2022-10-23T05:14:12;19.02;;;10.20;;
45208;SDS011;30951;43.994;26.260;2022-10-23T05:16:47;18.90;;;10.30;;
45208;SDS011;30951;43.994;26.260;2022-10-23T05:19:22;23.75;;;10.88;;
45208;SDS011;30951;43.994;26.260;2022-10-23T05:21:52;22.88;;;10.23;;
45208;SDS011;30951;43.994;26.260;2022-10-23T05:24:22;22.77;;;10.88;;
45208;SDS011;30951;43.994;26.260;2022-10-23T05:26:48;19.42;;;11.10;;
45208;SDS011;30951;43.994;26.260;2022-10-23T05:29:17;17.60;;;9.70;;
45208;SDS011;30951;43.994;26.260;2022-10-23T05:31:43;19.95;;;10.32;;
45208;SDS011;30951;43.994;26.260;2022-10-23T05:34:12;18.23;;;9.40;;
45208;SDS011;30951;43.994;26.260;2022-10-23T05:36:39;21.30;;;9.77;;
45208;SDS011;30951;43.994;26.260;2022-10-23T05:39:05;25.40;;;12.02;;
45208;SDS011;30951;43.994;26.260;2022-10-23T05:41:30;18.17;;;10.77;;
45208;SDS011;30951;43.994;26.260;2022-10-23T05:43:56;23.77;;;10.18;;
45208;SDS011;30951;43.994;26.260;2022-10-23T05:46:21;18.50;;;10.60;;
45208;SDS011;30951;43.994;26.260;2022-10-23T05:48:50;16.00;;;10.63;;
45208;SDS011;30951;43.994;26.260;2022-10-23T05:51:16;20.40;;;10.07;;
45208;SDS011;30951;43.994;26.260;2022-10-23T05:53:53;20.15;;;11.07;;
45208;SDS011;30951;43.994;26.260;2022-10-23T05:56:19;18.98;;;10.90;;
45208;SDS011;30951;43.994;26.260;2022-10-23T05:58:44;20.58;;;10.43;;
45208;SDS011;30951;43.994;26.260;2022-10-23T06:01:11;19.10;;;11.95;;
45208;SDS011;30951;43.994;26.260;2022-10-23T06:03:37;21.38;;;10.98;;
45208;SDS011;30951;43.994;26.260;2022-10-23T06:06:04;37.00;;;10.35;;
45208;SDS011;30951;43.994;26.260;2022-10-23T06:08:31;17.58;;;9.52;;
45208;SDS011;30951;43.994;26.260;2022-10-23T06:10:56;16.48;;;9.25;;
45208;SDS011;30951;43.994;26.260;2022-10-23T06:13:22;22.13;;;9.52;;
45208;SDS011;30951;43.994;26.260;2022-10-23T06:15:47;19.67;;;10.20;;
45208;SDS011;30951;43.994;26.260;2022-10-23T06:18:13;24.20;;;10.25;;
45208;SDS011;30951;43.994;26.260;2022-10-23T06:20:39;16.45;;;9.27;;
45208;SDS011;30951;43.994;26.260;2022-10-23T06:23:04;20.83;;;9.45;;
45208;SDS011;30951;43.994;26.260;2022-10-23T06:25:30;21.70;;;9.15;;
45208;SDS011;30951;43.994;26.260;2022-10-23T06:27:56;18.75;;;9.90;;
45208;SDS011;30951;43.994;26.260;2022-10-23T06:30:21;13.27;;;8.32;;
45208;SDS011;30951;43.994;26.260;2022-10-23T06:32:47;15.85;;;9.55;;
45208;SDS011;30951;43.994;26.260;2022-10-23T06:35:12;22.15;;;10.57;;
45208;SDS011;30951;43.994;26.260;2022-10-23T06:37:38;22.80;;;10.23;;
45208;SDS011;30951;43.994;26.260;2022-10-23T06:40:04;20.80;;;9.43;;
45208;SDS011;30951;43.994;26.260;2022-10-23T06:42:30;11.77;;;8.48;;
45208;SDS011;30951;43.994;26.260;2022-10-23T06:44:55;17.48;;;8.48;;
45208;SDS011;30951;43.994;26.260;2022-10-23T06:47:21;16.85;;;9.50;;
45208;SDS011;30951;43.994;26.260;2022-10-23T06:49:46;22.55;;;9.23;;
45208;SDS011;30951;43.994;26.260;2022-10-23T06:52:12;21.65;;;8.85;;
45208;SDS011;30951;43.994;26.260;2022-10-23T06:54:37;11.43;;;7.60;;
45208;SDS011;30951;43.994;26.260;2022-10-23T06:57:03;20.67;;;8.35;;
45208;SDS011;30951;43.994;26.260;2022-10-23T06:59:28;20.50;;;8.27;;
45208;SDS011;30951;43.994;26.260;2022-10-23T07:01:54;14.60;;;9.18;;
45208;SDS011;30951;43.994;26.260;2022-10-23T07:04:19;16.77;;;8.23;;
45208;SDS011;30951;43.994;26.260;2022-10-23T07:06:45;14.32;;;8.82;;
45208;SDS011;30951;43.994;26.260;2022-10-23T07:09:10;11.20;;;7.45;;
45208;SDS011;30951;43.994;26.260;2022-10-23T07:11:36;16.45;;;8.13;;
45208;SDS011;30951;43.994;26.260;2022-10-23T07:14:01;15.23;;;7.47;;
45208;SDS011;30951;43.994;26.260;2022-10-23T07:16:27;15.90;;;7.75;;
45208;SDS011;30951;43.994;26.260;2022-10-23T07:18:53;15.27;;;7.45;;
45208;SDS011;30951;43.994;26.260;2022-10-23T07:21:30;13.35;;;6.40;;
45208;SDS011;30951;43.994;26.260;2022-10-23T07:23:58;13.43;;;7.18;;
45208;SDS011;30951;43.994;26.260;2022-10-23T07:26:24;16.02;;;7.00;;
45208;SDS011;30951;43.994;26.260;2022-10-23T07:28:50;18.65;;;7.85;;
45208;SDS011;30951;43.994;26.260;2022-10-23T07:31:22;16.35;;;7.38;;
45208;SDS011;30951;43.994;26.260;2022-10-23T07:33:49;9.85;;;5.45;;
45208;SDS011;30951;43.994;26.260;2022-10-23T07:36:14;11.63;;;6.13;;
45208;SDS011;30951;43.994;26.260;2022-10-23T07:38:40;13.27;;;6.50;;
45208;SDS011;30951;43.994;26.260;2022-10-23T07:41:06;13.50;;;5.55;;
45208;SDS011;30951;43.994;26.260;2022-10-23T07:43:31;8.18;;;5.22;;
45208;SDS011;30951;43.994;26.260;2022-10-23T07:45:58;10.00;;;5.10;;
45208;SDS011;30951;43.994;26.260;2022-10-23T07:48:24;13.63;;;6.35;;
45208;SDS011;30951;43.994;26.260;2022-10-23T07:50:51;9.13;;;5.40;;
45208;SDS011;30951;43.994;26.260;2022-10-23T07:53:21;12.80;;;5.60;;
45208;SDS011;30951;43.994;26.260;2022-10-23T07:55:57;9.15;;;5.07;;
45208;SDS011;30951;43.994;26.260;2022-10-23T07:58:25;11.02;;;4.43;;
45208;SDS011;30951;43.994;26.260;2022-10-23T08:00:55;9.63;;;4.82;;
45208;SDS011;30951;43.994;26.260;2022-10-23T08:03:40;13.15;;;5.00;;
45208;SDS011;30951;43.994;26.260;2022-10-23T08:06:06;9.25;;;4.38;;
45208;SDS011;30951;43.994;26.260;2022-10-23T08:08:31;6.95;;;3.95;;
45208;SDS011;30951;43.994;26.260;2022-10-23T08:10:57;5.35;;;4.28;;
45208;SDS011;30951;43.994;26.260;2022-10-23T08:13:22;9.82;;;3.85;;
45208;SDS011;30951;43.994;26.260;2022-10-23T08:15:48;11.93;;;5.85;;
45208;SDS011;30951;43.994;26.260;2022-10-23T08:18:15;5.97;;;4.15;;
45208;SDS011;30951;43.994;26.260;2022-10-23T08:20:41;5.93;;;3.03;;
45208;SDS011;30951;43.994;26.260;2022-10-23T08:23:08;7.15;;;4.20;;
45208;SDS011;30951;43.994;26.260;2022-10-23T08:25:34;8.32;;;3.60;;
45208;SDS011;30951;43.994;26.260;2022-10-23T08:28:00;5.95;;;3.10;;
45208;SDS011;30951;43.994;26.260;2022-10-23T08:30:26;8.95;;;3.55;;
45208;SDS011;30951;43.994;26.260;2022-10-23T08:32:51;5.40;;;2.55;;
45208;SDS011;30951;43.994;26.260;2022-10-23T08:35:17;17.90;;;3.55;;
45208;SDS011;30951;43.994;26.260;2022-10-23T08:37:42;7.40;;;2.88;;
45208;SDS011;30951;43.994;26.260;2022-10-23T08:40:18;7.88;;;2.72;;
45208;SDS011;30951;43.994;26.260;2022-10-23T08:42:58;9.02;;;2.80;;
45208;SDS011;30951;43.994;26.260;2022-10-23T08:45:44;6.20;;;2.50;;
45208;SDS011;30951;43.994;26.260;2022-10-23T08:50:59;5.20;;;2.75;;
45208;SDS011;30951;43.994;26.260;2022-10-23T08:53:35;9.10;;;2.55;;
45208;SDS011;30951;43.994;26.260;2022-10-23T08:56:24;8.30;;;2.80;;
45208;SDS011;30951;43.994;26.260;2022-10-23T08:58:57;7.90;;;2.72;;
45208;SDS011;30951;43.994;26.260;2022-10-23T09:01:42;4.88;;;2.30;;
45208;SDS011;30951;43.994;26.260;2022-10-23T09:04:11;5.82;;;2.47;;
45208;SDS011;30951;43.994;26.260;2022-10-23T09:06:39;6.72;;;2.75;;
45208;SDS011;30951;43.994;26.260;2022-10-23T09:12:23;7.93;;;2.50;;
45208;SDS011;30951;43.994;26.260;2022-10-23T09:17:26;2.90;;;2.20;;
45208;SDS011;30951;43.994;26.260;2022-10-23T09:22:30;9.23;;;2.45;;
45208;SDS011;30951;43.994;26.260;2022-10-23T09:24:56;7.20;;;2.55;;
45208;SDS011;30951;43.994;26.260;2022-10-23T09:27:21;9.25;;;2.20;;
45208;SDS011;30951;43.994;26.260;2022-10-23T09:29:51;3.83;;;2.00;;
45208;SDS011;30951;43.994;26.260;2022-10-23T09:32:18;6.88;;;2.65;;
45208;SDS011;30951;43.994;26.260;2022-10-23T09:34:51;8.85;;;1.90;;
45208;SDS011;30951;43.994;26.260;2022-10-23T09:37:29;5.18;;;2.00;;
45208;SDS011;30951;43.994;26.260;2022-10-23T09:42:53;4.20;;;2.10;;
45208;SDS011;30951;43.994;26.260;2022-10-23T09:45:30;6.15;;;1.90;;
45208;SDS011;30951;43.994;26.260;2022-10-23T09:48:09;5.43;;;2.13;;
45208;SDS011;30951;43.994;26.260;2022-10-23T09:50:41;5.72;;;2.63;;
45208;SDS011;30951;43.994;26.260;2022-10-23T09:55:50;11.07;;;2.10;;
45208;SDS011;30951;43.994;26.260;2022-10-23T09:58:21;5.63;;;1.70;;
45208;SDS011;30951;43.994;26.260;2022-10-23T10:00:51;8.18;;;1.80;;
45208;SDS011;30951;43.994;26.260;2022-10-23T10:03:21;4.88;;;1.50;;
45208;SDS011;30951;43.994;26.260;2022-10-23T10:06:01;3.53;;;1.80;;
45208;SDS011;30951;43.994;26.260;2022-10-23T10:14:02;5.78;;;1.25;;
45208;SDS011;30951;43.994;26.260;2022-10-23T10:27:25;3.30;;;2.38;;
45208;SDS011;30951;43.994;26.260;2022-10-23T10:30:00;6.28;;;1.80;;
45208;SDS011;30951;43.994;26.260;2022-10-23T10:44:02;4.68;;;1.90;;
45208;SDS011;30951;43.994;26.260;2022-10-23T10:46:51;7.53;;;2.05;;
45208;SDS011;30951;43.994;26.260;2022-10-23T10:57:42;8.48;;;1.50;;
45208;SDS011;30951;43.994;26.260;2022-10-23T11:00:14;5.35;;;1.33;;
45208;SDS011;30951;43.994;26.260;2022-10-23T11:02:45;1.83;;;1.30;;
45208;SDS011;30951;43.994;26.260;2022-10-23T11:10:31;3.63;;;1.60;;
45208;SDS011;30951;43.994;26.260;2022-10-23T11:12:57;3.00;;;1.20;;
45208;SDS011;30951;43.994;26.260;2022-10-23T11:15:27;3.65;;;1.60;;
45208;SDS011;30951;43.994;26.260;2022-10-23T11:17:57;1.40;;;1.10;;
45208;SDS011;30951;43.994;26.260;2022-10-23T11:26:15;3.83;;;1.52;;
45208;SDS011;30951;43.994;26.260;2022-10-23T11:33:56;2.78;;;1.00;;
45208;SDS011;30951;43.994;26.260;2022-10-23T11:41:53;3.63;;;1.35;;
45208;SDS011;30951;43.994;26.260;2022-10-23T11:52:39;2.40;;;1.50;;
45208;SDS011;30951;43.994;26.260;2022-10-23T11:55:19;2.03;;;1.20;;
45208;SDS011;30951;43.994;26.260;2022-10-23T12:00:29;13.20;;;1.90;;
45208;SDS011;30951;43.994;26.260;2022-10-23T12:02:56;2.50;;;1.40;;
45208;SDS011;30951;43.994;26.260;2022-10-23T12:05:32;2.40;;;1.30;;
45208;SDS011;30951;43.994;26.260;2022-10-23T12:08:02;5.03;;;1.40;;
45208;SDS011;30951;43.994;26.260;2022-10-23T12:10:30;7.18;;;1.60;;
45208;SDS011;30951;43.994;26.260;2022-10-23T12:12:59;1.90;;;1.38;;
45208;SDS011;30951;43.994;26.260;2022-10-23T12:15:30;4.90;;;2.10;;
45208;SDS011;30951;43.994;26.260;2022-10-23T12:18:14;1.55;;;1.25;;
45208;SDS011;30951;43.994;26.260;2022-10-23T12:20:57;6.97;;;1.40;;
45208;SDS011;30951;43.994;26.260;2022-10-23T12:31:16;1.75;;;1.40;;
45208;SDS011;30951;43.994;26.260;2022-10-23T12:38:46;5.93;;;1.52;;
45208;SDS011;30951;43.994;26.260;2022-10-23T12:41:24;6.03;;;1.48;;
45208;SDS011;30951;43.994;26.260;2022-10-23T12:43:52;4.43;;;2.53;;
45208;SDS011;30951;43.994;26.260;2022-10-23T12:49:10;4.97;;;1.83;;
45208;SDS011;30951;43.994;26.260;2022-10-23T12:51:41;2.65;;;1.63;;
45208;SDS011;30951;43.994;26.260;2022-10-23T12:54:17;5.03;;;1.70;;
45208;SDS011;30951;43.994;26.260;2022-10-23T12:56:44;2.80;;;1.70;;
45208;SDS011;30951;43.994;26.260;2022-10-23T12:59:14;2.40;;;1.52;;
45208;SDS011;30951;43.994;26.260;2022-10-23T13:01:41;2.70;;;1.60;;
45208;SDS011;30951;43.994;26.260;2022-10-23T13:04:12;6.93;;;1.98;;
45208;SDS011;30951;43.994;26.260;2022-10-23T13:06:41;5.65;;;1.83;;
45208;SDS011;30951;43.994;26.260;2022-10-23T13:09:13;4.80;;;1.50;;
45208;SDS011;30951;43.994;26.260;2022-10-23T13:11:49;4.50;;;1.73;;
45208;SDS011;30951;43.994;26.260;2022-10-23T13:14:33;12.48;;;5.28;;
45208;SDS011;30951;43.994;26.260;2022-10-23T13:17:04;16.05;;;7.85;;
45208;SDS011;30951;43.994;26.260;2022-10-23T13:19:31;5.45;;;2.55;;
45208;SDS011;30951;43.994;26.260;2022-10-23T13:21:57;1.92;;;1.45;;
45208;SDS011;30951;43.994;26.260;2022-10-23T13:24:24;5.18;;;3.33;;
45208;SDS011;30951;43.994;26.260;2022-10-23T13:26:50;3.78;;;1.67;;
45208;SDS011;30951;43.994;26.260;2022-10-23T13:29:20;2.78;;;1.90;;
45208;SDS011;30951;43.994;26.260;2022-10-23T13:31:52;2.50;;;2.00;;
45208;SDS011;30951;43.994;26.260;2022-10-23T13:34:21;3.33;;;1.42;;
45208;SDS011;30951;43.994;26.260;2022-10-23T13:37:01;3.65;;;1.67;;
45208;SDS011;30951;43.994;26.260;2022-10-23T13:39:29;4.63;;;1.90;;
45208;SDS011;30951;43.994;26.260;2022-10-23T13:42:00;16.15;;;8.77;;
45208;SDS011;30951;43.994;26.260;2022-10-23T13:44:35;5.22;;;2.70;;
45208;SDS011;30951;43.994;26.260;2022-10-23T13:47:02;6.47;;;1.42;;
45208;SDS011;30951;43.994;26.260;2022-10-23T13:49:28;5.90;;;2.20;;
45208;SDS011;30951;43.994;26.260;2022-10-23T13:51:54;7.25;;;3.28;;
45208;SDS011;30951;43.994;26.260;2022-10-23T13:54:24;6.38;;;2.67;;
45208;SDS011;30951;43.994;26.260;2022-10-23T13:56:52;6.47;;;2.78;;
45208;SDS011;30951;43.994;26.260;2022-10-23T13:59:18;6.78;;;4.35;;
45208;SDS011;30951;43.994;26.260;2022-10-23T14:01:44;9.95;;;4.22;;
45208;SDS011;30951;43.994;26.260;2022-10-23T14:04:11;9.13;;;4.60;;
45208;SDS011;30951;43.994;26.260;2022-10-23T14:06:37;9.43;;;2.80;;
45208;SDS011;30951;43.994;26.260;2022-10-23T14:09:03;6.82;;;3.33;;
45208;SDS011;30951;43.994;26.260;2022-10-23T14:11:30;8.52;;;3.53;;
45208;SDS011;30951;43.994;26.260;2022-10-23T14:13:56;8.57;;;3.65;;
45208;SDS011;30951;43.994;26.260;2022-10-23T14:16:22;22.08;;;3.83;;
45208;SDS011;30951;43.994;26.260;2022-10-23T14:18:47;46.47;;;4.47;;
45208;SDS011;30951;43.994;26.260;2022-10-23T14:21:14;14.98;;;2.35;;
45208;SDS011;30951;43.994;26.260;2022-10-23T14:23:41;5.07;;;1.65;;
45208;SDS011;30951;43.994;26.260;2022-10-23T14:26:08;4.70;;;2.05;;
45208;SDS011;30951;43.994;26.260;2022-10-23T14:28:35;6.72;;;2.22;;
45208;SDS011;30951;43.994;26.260;2022-10-23T14:31:09;4.20;;;2.00;;
45208;SDS011;30951;43.994;26.260;2022-10-23T14:33:38;10.57;;;3.05;;
45208;SDS011;30951;43.994;26.260;2022-10-23T14:36:05;10.00;;;2.83;;
45208;SDS011;30951;43.994;26.260;2022-10-23T14:38:30;8.90;;;3.35;;
45208;SDS011;30951;43.994;26.260;2022-10-23T14:40:56;5.18;;;3.35;;
45208;SDS011;30951;43.994;26.260;2022-10-23T14:43:22;9.35;;;5.20;;
45208;SDS011;30951;43.994;26.260;2022-10-23T14:45:48;18.10;;;8.68;;
45208;SDS011;30951;43.994;26.260;2022-10-23T14:48:14;22.10;;;9.65;;
45208;SDS011;30951;43.994;26.260;2022-10-23T14:50:43;25.45;;;10.90;;
45208;SDS011;30951;43.994;26.260;2022-10-23T14:55:36;26.67;;;8.63;;
45208;SDS011;30951;43.994;26.260;2022-10-23T14:58:01;22.88;;;10.75;;
45208;SDS011;30951;43.994;26.260;2022-10-23T15:00:27;22.77;;;10.45;;
45208;SDS011;30951;43.994;26.260;2022-10-23T15:02:52;14.85;;;7.93;;
45208;SDS011;30951;43.994;26.260;2022-10-23T15:05:18;18.67;;;6.95;;
45208;SDS011;30951;43.994;26.260;2022-10-23T15:07:43;13.43;;;6.32;;
45208;SDS011;30951;43.994;26.260;2022-10-23T15:10:09;20.58;;;6.68;;
45208;SDS011;30951;43.994;26.260;2022-10-23T15:12:35;26.55;;;7.25;;
45208;SDS011;30951;43.994;26.260;2022-10-23T15:15:01;13.95;;;6.65;;
45208;SDS011;30951;43.994;26.260;2022-10-23T15:17:27;9.98;;;5.00;;
45208;SDS011;30951;43.994;26.260;2022-10-23T15:19:52;29.77;;;14.63;;
45208;SDS011;30951;43.994;26.260;2022-10-23T15:22:18;44.30;;;23.00;;
45208;SDS011;30951;43.994;26.260;2022-10-23T15:24:44;29.58;;;16.88;;
45208;SDS011;30951;43.994;26.260;2022-10-23T15:27:10;28.23;;;11.48;;
45208;SDS011;30951;43.994;26.260;2022-10-23T15:29:35;16.17;;;6.53;;
45208;SDS011;30951;43.994;26.260;2022-10-23T15:32:01;19.75;;;5.50;;
45208;SDS011;30951;43.994;26.260;2022-10-23T15:34:28;24.35;;;4.88;;
45208;SDS011;30951;43.994;26.260;2022-10-23T15:36:55;24.90;;;9.90;;
45208;SDS011;30951;43.994;26.260;2022-10-23T15:39:22;14.20;;;7.40;;
45208;SDS011;30951;43.994;26.260;2022-10-23T15:41:50;15.70;;;4.65;;
45208;SDS011;30951;43.994;26.260;2022-10-23T15:44:17;16.40;;;3.50;;
45208;SDS011;30951;43.994;26.260;2022-10-23T15:46:44;3.58;;;1.70;;
45208;SDS011;30951;43.994;26.260;2022-10-23T15:49:09;5.35;;;1.60;;
45208;SDS011;30951;43.994;26.260;2022-10-23T15:51:35;14.57;;;1.50;;
45208;SDS011;30951;43.994;26.260;2022-10-23T15:54:02;6.38;;;1.40;;
45208;SDS011;30951;43.994;26.260;2022-10-23T15:56:29;14.55;;;2.22;;
45208;SDS011;30951;43.994;26.260;2022-10-23T15:58:55;9.00;;;2.75;;
45208;SDS011;30951;43.994;26.260;2022-10-23T16:01:20;13.77;;;2.75;;
45208;SDS011;30951;43.994;26.260;2022-10-23T16:03:46;8.52;;;4.22;;
45208;SDS011;30951;43.994;26.260;2022-10-23T16:06:12;17.88;;;4.50;;
45208;SDS011;30951;43.994;26.260;2022-10-23T16:08:39;11.90;;;5.10;;
45208;SDS011;30951;43.994;26.260;2022-10-23T16:11:11;11.07;;;4.05;;
45208;SDS011;30951;43.994;26.260;2022-10-23T16:13:45;8.55;;;3.40;;
45208;SDS011;30951;43.994;26.260;2022-10-23T16:16:11;7.72;;;2.90;;
45208;SDS011;30951;43.994;26.260;2022-10-23T16:18:38;7.90;;;3.42;;
45208;SDS011;30951;43.994;26.260;2022-10-23T16:21:03;7.60;;;3.30;;
45208;SDS011;30951;43.994;26.260;2022-10-23T16:23:29;8.52;;;2.70;;
45208;SDS011;30951;43.994;26.260;2022-10-23T16:26:00;7.07;;;3.35;;
45208;SDS011;30951;43.994;26.260;2022-10-23T16:28:26;9.57;;;3.28;;
45208;SDS011;30951;43.994;26.260;2022-10-23T16:30:52;7.60;;;3.78;;
45208;SDS011;30951;43.994;26.260;2022-10-23T16:33:17;17.45;;;3.80;;
45208;SDS011;30951;43.994;26.260;2022-10-23T16:35:43;17.85;;;4.55;;
45208;SDS011;30951;43.994;26.260;2022-10-23T16:38:08;6.20;;;3.42;;
45208;SDS011;30951;43.994;26.260;2022-10-23T16:40:33;6.38;;;3.30;;
45208;SDS011;30951;43.994;26.260;2022-10-23T16:42:59;5.63;;;3.28;;
45208;SDS011;30951;43.994;26.260;2022-10-23T16:45:24;7.43;;;3.58;;
45208;SDS011;30951;43.994;26.260;2022-10-23T16:47:50;10.70;;;3.08;;
45208;SDS011;30951;43.994;26.260;2022-10-23T16:50:15;5.65;;;2.88;;
45208;SDS011;30951;43.994;26.260;2022-10-23T16:52:41;6.40;;;3.17;;